sensor_id;sensor_type;location;lat;lon;timestamp;P1;durP1;ratioP1;P2;durP2;ratioP2
6479;SDS011;71753;48.772;9.148;2023-08-21T00:02:15;6.90;;;4.70;;
6479;SDS011;71753;48.772;9.148;2023-08-21T00:04:42;6.97;;;5.10;;
6479;SDS011;71753;48.772;9.148;2023-08-21T00:07:09;5.80;;;5.03;;
6479;SDS011;71753;48.772;9.148;2023-08-21T00:09:36;6.60;;;4.80;;
6479;SDS011;71753;48.772;9.148;2023-08-21T00:12:03;6.70;;;5.23;;
6479;SDS011;71753;48.772;9.148;2023-08-21T00:14:30;5.83;;;5.10;;
6479;SDS011;71753;48.772;9.148;2023-08-21T00:16:58;6.63;;;5.27;;
6479;SDS011;71753;48.772;9.148;2023-08-21T00:19:25;7.40;;;5.20;;
6479;SDS011;71753;48.772;9.148;2023-08-21T00:21:52;6.23;;;4.73;;
6479;SDS011;71753;48.772;9.148;2023-08-21T00:24:19;9.20;;;5.33;;
6479;SDS011;71753;48.772;9.148;2023-08-21T00:26:45;6.10;;;5.20;;
6479;SDS011;71753;48.772;9.148;2023-08-21T00:29:12;6.83;;;5.37;;
6479;SDS011;71753;48.772;9.148;2023-08-21T00:31:39;6.03;;;4.90;;
6479;SDS011;71753;48.772;9.148;2023-08-21T00:34:07;7.77;;;5.20;;
6479;SDS011;71753;48.772;9.148;2023-08-21T00:36:34;6.43;;;5.13;;
6479;SDS011;71753;48.772;9.148;2023-08-21T00:39:01;5.20;;;4.53;;
6479;SDS011;71753;48.772;9.148;2023-08-21T00:41:27;7.00;;;5.27;;
6479;SDS011;71753;48.772;9.148;2023-08-21T00:43:54;5.80;;;4.70;;
6479;SDS011;71753;48.772;9.148;2023-08-21T00:46:21;7.17;;;5.20;;
6479;SDS011;71753;48.772;9.148;2023-08-21T00:48:48;6.77;;;5.30;;
6479;SDS011;71753;48.772;9.148;2023-08-21T00:51:16;5.70;;;5.10;;
6479;SDS011;71753;48.772;9.148;2023-08-21T00:53:43;9.90;;;5.20;;
6479;SDS011;71753;48.772;9.148;2023-08-21T00:56:10;5.50;;;4.90;;
6479;SDS011;71753;48.772;9.148;2023-08-21T00:58:37;6.70;;;4.80;;
6479;SDS011;71753;48.772;9.148;2023-08-21T01:01:04;5.70;;;4.87;;
6479;SDS011;71753;48.772;9.148;2023-08-21T01:03:31;8.60;;;5.37;;
6479;SDS011;71753;48.772;9.148;2023-08-21T01:05:58;7.10;;;5.23;;
6479;SDS011;71753;48.772;9.148;2023-08-21T01:08:28;8.30;;;5.30;;
6479;SDS011;71753;48.772;9.148;2023-08-21T01:11:02;9.57;;;5.03;;
6479;SDS011;71753;48.772;9.148;2023-08-21T01:13:36;7.87;;;4.97;;
6479;SDS011;71753;48.772;9.148;2023-08-21T01:16:10;6.50;;;5.07;;
6479;SDS011;71753;48.772;9.148;2023-08-21T01:18:38;6.73;;;5.30;;
6479;SDS011;71753;48.772;9.148;2023-08-21T01:21:06;6.23;;;5.20;;
6479;SDS011;71753;48.772;9.148;2023-08-21T01:23:35;5.77;;;5.17;;
6479;SDS011;71753;48.772;9.148;2023-08-21T01:26:02;9.50;;;5.30;;
6479;SDS011;71753;48.772;9.148;2023-08-21T01:28:29;6.57;;;5.43;;
6479;SDS011;71753;48.772;9.148;2023-08-21T01:30:58;6.77;;;5.40;;
6479;SDS011;71753;48.772;9.148;2023-08-21T01:33:29;6.50;;;5.40;;
6479;SDS011;71753;48.772;9.148;2023-08-21T01:35:59;6.07;;;4.93;;
6479;SDS011;71753;48.772;9.148;2023-08-21T01:38:30;6.00;;;5.03;;
6479;SDS011;71753;48.772;9.148;2023-08-21T01:40:59;8.17;;;5.43;;
6479;SDS011;71753;48.772;9.148;2023-08-21T01:43:27;6.40;;;5.43;;
6479;SDS011;71753;48.772;9.148;2023-08-21T01:45:53;5.60;;;5.10;;
6479;SDS011;71753;48.772;9.148;2023-08-21T01:48:20;6.57;;;5.40;;
6479;SDS011;71753;48.772;9.148;2023-08-21T01:50:47;6.33;;;5.33;;
6479;SDS011;71753;48.772;9.148;2023-08-21T01:53:13;6.10;;;5.17;;
6479;SDS011;71753;48.772;9.148;2023-08-21T01:55:40;7.33;;;5.40;;
6479;SDS011;71753;48.772;9.148;2023-08-21T01:58:08;6.30;;;5.07;;
6479;SDS011;71753;48.772;9.148;2023-08-21T02:00:35;7.63;;;5.67;;
6479;SDS011;71753;48.772;9.148;2023-08-21T02:03:01;6.37;;;4.97;;
6479;SDS011;71753;48.772;9.148;2023-08-21T02:05:28;6.93;;;5.50;;
6479;SDS011;71753;48.772;9.148;2023-08-21T02:07:55;8.73;;;5.40;;
6479;SDS011;71753;48.772;9.148;2023-08-21T02:10:21;6.43;;;4.90;;
6479;SDS011;71753;48.772;9.148;2023-08-21T02:12:48;6.07;;;5.13;;
6479;SDS011;71753;48.772;9.148;2023-08-21T02:15:18;6.10;;;5.47;;
6479;SDS011;71753;48.772;9.148;2023-08-21T02:17:47;8.13;;;5.67;;
6479;SDS011;71753;48.772;9.148;2023-08-21T02:20:13;8.13;;;5.27;;
6479;SDS011;71753;48.772;9.148;2023-08-21T02:22:40;7.57;;;5.57;;
6479;SDS011;71753;48.772;9.148;2023-08-21T02:25:07;7.37;;;5.90;;
6479;SDS011;71753;48.772;9.148;2023-08-21T02:27:34;7.83;;;5.37;;
6479;SDS011;71753;48.772;9.148;2023-08-21T02:30:01;8.10;;;5.57;;
6479;SDS011;71753;48.772;9.148;2023-08-21T02:32:29;7.47;;;5.37;;
6479;SDS011;71753;48.772;9.148;2023-08-21T02:34:56;6.77;;;5.53;;
6479;SDS011;71753;48.772;9.148;2023-08-21T02:37:22;6.23;;;5.27;;
6479;SDS011;71753;48.772;9.148;2023-08-21T02:39:49;6.13;;;5.53;;
6479;SDS011;71753;48.772;9.148;2023-08-21T02:42:16;5.87;;;5.07;;
6479;SDS011;71753;48.772;9.148;2023-08-21T02:44:42;7.63;;;5.80;;
6479;SDS011;71753;48.772;9.148;2023-08-21T02:47:09;9.10;;;5.20;;
6479;SDS011;71753;48.772;9.148;2023-08-21T02:49:37;8.50;;;5.47;;
6479;SDS011;71753;48.772;9.148;2023-08-21T02:52:04;8.00;;;4.97;;
6479;SDS011;71753;48.772;9.148;2023-08-21T02:54:30;6.60;;;5.60;;
6479;SDS011;71753;48.772;9.148;2023-08-21T02:56:57;6.63;;;5.40;;
6479;SDS011;71753;48.772;9.148;2023-08-21T02:59:24;8.30;;;5.17;;
6479;SDS011;71753;48.772;9.148;2023-08-21T03:01:50;6.93;;;5.53;;
6479;SDS011;71753;48.772;9.148;2023-08-21T03:04:17;6.37;;;5.20;;
6479;SDS011;71753;48.772;9.148;2023-08-21T03:06:45;6.90;;;5.13;;
6479;SDS011;71753;48.772;9.148;2023-08-21T03:09:12;6.67;;;5.27;;
6479;SDS011;71753;48.772;9.148;2023-08-21T03:11:38;6.37;;;5.50;;
6479;SDS011;71753;48.772;9.148;2023-08-21T03:14:05;6.57;;;5.07;;
6479;SDS011;71753;48.772;9.148;2023-08-21T03:16:31;9.50;;;5.30;;
6479;SDS011;71753;48.772;9.148;2023-08-21T03:18:59;7.10;;;5.30;;
6479;SDS011;71753;48.772;9.148;2023-08-21T03:21:26;6.87;;;5.57;;
6479;SDS011;71753;48.772;9.148;2023-08-21T03:23:55;8.07;;;5.50;;
6479;SDS011;71753;48.772;9.148;2023-08-21T03:26:24;7.23;;;5.43;;
6479;SDS011;71753;48.772;9.148;2023-08-21T03:28:52;8.37;;;5.37;;
6479;SDS011;71753;48.772;9.148;2023-08-21T03:31:18;5.80;;;5.23;;
6479;SDS011;71753;48.772;9.148;2023-08-21T03:33:45;5.93;;;5.00;;
6479;SDS011;71753;48.772;9.148;2023-08-21T03:36:11;8.60;;;5.63;;
6479;SDS011;71753;48.772;9.148;2023-08-21T03:38:38;6.30;;;5.33;;
6479;SDS011;71753;48.772;9.148;2023-08-21T03:41:06;7.57;;;5.20;;
6479;SDS011;71753;48.772;9.148;2023-08-21T03:43:35;5.83;;;5.10;;
6479;SDS011;71753;48.772;9.148;2023-08-21T03:46:02;9.23;;;5.60;;
6479;SDS011;71753;48.772;9.148;2023-08-21T03:48:29;6.50;;;5.47;;
6479;SDS011;71753;48.772;9.148;2023-08-21T03:50:55;7.93;;;5.67;;
6479;SDS011;71753;48.772;9.148;2023-08-21T03:53:22;8.80;;;5.80;;
6479;SDS011;71753;48.772;9.148;2023-08-21T03:55:49;9.17;;;5.50;;
6479;SDS011;71753;48.772;9.148;2023-08-21T03:58:17;8.13;;;5.80;;
6479;SDS011;71753;48.772;9.148;2023-08-21T04:00:44;7.17;;;5.87;;
6479;SDS011;71753;48.772;9.148;2023-08-21T04:03:11;6.93;;;5.80;;
6479;SDS011;71753;48.772;9.148;2023-08-21T04:05:38;8.53;;;5.97;;
6479;SDS011;71753;48.772;9.148;2023-08-21T04:08:05;7.87;;;5.63;;
6479;SDS011;71753;48.772;9.148;2023-08-21T04:10:32;7.63;;;5.97;;
6479;SDS011;71753;48.772;9.148;2023-08-21T04:12:59;11.67;;;6.20;;
6479;SDS011;71753;48.772;9.148;2023-08-21T04:15:27;10.67;;;6.50;;
6479;SDS011;71753;48.772;9.148;2023-08-21T04:17:54;8.47;;;5.90;;
6479;SDS011;71753;48.772;9.148;2023-08-21T04:20:21;6.70;;;5.97;;
6479;SDS011;71753;48.772;9.148;2023-08-21T04:22:47;7.27;;;6.00;;
6479;SDS011;71753;48.772;9.148;2023-08-21T04:25:14;10.20;;;6.00;;
6479;SDS011;71753;48.772;9.148;2023-08-21T04:27:41;7.70;;;5.70;;
6479;SDS011;71753;48.772;9.148;2023-08-21T04:30:09;9.93;;;5.90;;
6479;SDS011;71753;48.772;9.148;2023-08-21T04:32:37;9.03;;;6.17;;
6479;SDS011;71753;48.772;9.148;2023-08-21T04:35:04;9.43;;;5.90;;
6479;SDS011;71753;48.772;9.148;2023-08-21T04:37:33;9.37;;;6.20;;
6479;SDS011;71753;48.772;9.148;2023-08-21T04:40:00;6.53;;;5.83;;
6479;SDS011;71753;48.772;9.148;2023-08-21T04:42:27;6.70;;;5.60;;
6479;SDS011;71753;48.772;9.148;2023-08-21T04:44:54;8.80;;;5.80;;
6479;SDS011;71753;48.772;9.148;2023-08-21T04:47:21;8.80;;;6.00;;
6479;SDS011;71753;48.772;9.148;2023-08-21T04:49:50;7.70;;;5.73;;
6479;SDS011;71753;48.772;9.148;2023-08-21T04:52:17;9.63;;;6.03;;
6479;SDS011;71753;48.772;9.148;2023-08-21T04:54:44;8.90;;;6.10;;
6479;SDS011;71753;48.772;9.148;2023-08-21T04:57:10;7.60;;;6.07;;
6479;SDS011;71753;48.772;9.148;2023-08-21T04:59:37;8.77;;;6.10;;
6479;SDS011;71753;48.772;9.148;2023-08-21T05:02:04;7.17;;;5.93;;
6479;SDS011;71753;48.772;9.148;2023-08-21T05:04:31;7.17;;;5.87;;
6479;SDS011;71753;48.772;9.148;2023-08-21T05:06:59;7.03;;;6.17;;
6479;SDS011;71753;48.772;9.148;2023-08-21T05:09:26;8.30;;;6.00;;
6479;SDS011;71753;48.772;9.148;2023-08-21T05:11:53;9.90;;;5.83;;
6479;SDS011;71753;48.772;9.148;2023-08-21T05:14:20;6.83;;;5.60;;
6479;SDS011;71753;48.772;9.148;2023-08-21T05:16:47;8.20;;;5.83;;
6479;SDS011;71753;48.772;9.148;2023-08-21T05:19:14;9.67;;;6.17;;
6479;SDS011;71753;48.772;9.148;2023-08-21T05:21:41;8.70;;;5.90;;
6479;SDS011;71753;48.772;9.148;2023-08-21T05:24:09;8.53;;;6.50;;
6479;SDS011;71753;48.772;9.148;2023-08-21T05:26:37;7.87;;;6.40;;
6479;SDS011;71753;48.772;9.148;2023-08-21T05:29:04;6.93;;;5.97;;
6479;SDS011;71753;48.772;9.148;2023-08-21T05:31:31;8.73;;;6.30;;
6479;SDS011;71753;48.772;9.148;2023-08-21T05:33:58;8.60;;;6.20;;
6479;SDS011;71753;48.772;9.148;2023-08-21T05:36:25;8.13;;;6.17;;
6479;SDS011;71753;48.772;9.148;2023-08-21T05:38:51;10.60;;;6.07;;
6479;SDS011;71753;48.772;9.148;2023-08-21T05:41:19;7.97;;;5.93;;
6479;SDS011;71753;48.772;9.148;2023-08-21T05:43:46;9.37;;;6.40;;
6479;SDS011;71753;48.772;9.148;2023-08-21T05:46:14;8.60;;;6.00;;
6479;SDS011;71753;48.772;9.148;2023-08-21T05:48:40;9.23;;;6.23;;
6479;SDS011;71753;48.772;9.148;2023-08-21T05:51:07;10.17;;;6.23;;
6479;SDS011;71753;48.772;9.148;2023-08-21T05:53:34;10.37;;;5.97;;
6479;SDS011;71753;48.772;9.148;2023-08-21T05:56:00;7.67;;;5.70;;
6479;SDS011;71753;48.772;9.148;2023-08-21T05:58:28;11.40;;;5.33;;
6479;SDS011;71753;48.772;9.148;2023-08-21T06:00:57;6.03;;;5.37;;
6479;SDS011;71753;48.772;9.148;2023-08-21T06:03:24;8.27;;;5.87;;
6479;SDS011;71753;48.772;9.148;2023-08-21T06:05:51;9.33;;;5.87;;
6479;SDS011;71753;48.772;9.148;2023-08-21T06:08:17;7.17;;;5.80;;
6479;SDS011;71753;48.772;9.148;2023-08-21T06:10:44;6.57;;;5.80;;
6479;SDS011;71753;48.772;9.148;2023-08-21T06:13:11;6.63;;;5.93;;
6479;SDS011;71753;48.772;9.148;2023-08-21T06:15:39;6.77;;;5.70;;
6479;SDS011;71753;48.772;9.148;2023-08-21T06:18:10;11.53;;;6.13;;
6479;SDS011;71753;48.772;9.148;2023-08-21T06:20:36;6.63;;;5.93;;
6479;SDS011;71753;48.772;9.148;2023-08-21T06:23:03;7.67;;;6.10;;
6479;SDS011;71753;48.772;9.148;2023-08-21T06:25:30;7.07;;;5.77;;
6479;SDS011;71753;48.772;9.148;2023-08-21T06:27:58;8.37;;;6.00;;
6479;SDS011;71753;48.772;9.148;2023-08-21T06:30:25;7.10;;;5.77;;
6479;SDS011;71753;48.772;9.148;2023-08-21T06:32:53;8.37;;;6.00;;
6479;SDS011;71753;48.772;9.148;2023-08-21T06:35:21;7.10;;;5.87;;
6479;SDS011;71753;48.772;9.148;2023-08-21T06:37:48;7.73;;;5.60;;
6479;SDS011;71753;48.772;9.148;2023-08-21T06:40:15;8.30;;;5.97;;
6479;SDS011;71753;48.772;9.148;2023-08-21T06:42:42;7.50;;;6.43;;
6479;SDS011;71753;48.772;9.148;2023-08-21T06:45:09;7.17;;;5.97;;
6479;SDS011;71753;48.772;9.148;2023-08-21T06:47:36;7.13;;;6.20;;
6479;SDS011;71753;48.772;9.148;2023-08-21T06:50:04;8.27;;;5.70;;
6479;SDS011;71753;48.772;9.148;2023-08-21T06:52:31;8.23;;;5.93;;
6479;SDS011;71753;48.772;9.148;2023-08-21T06:54:58;9.57;;;6.17;;
6479;SDS011;71753;48.772;9.148;2023-08-21T06:57:24;10.40;;;6.07;;
6479;SDS011;71753;48.772;9.148;2023-08-21T06:59:51;8.97;;;6.60;;
6479;SDS011;71753;48.772;9.148;2023-08-21T07:02:18;7.47;;;6.03;;
6479;SDS011;71753;48.772;9.148;2023-08-21T07:04:45;7.90;;;6.20;;
6479;SDS011;71753;48.772;9.148;2023-08-21T07:07:13;9.60;;;5.60;;
6479;SDS011;71753;48.772;9.148;2023-08-21T07:09:39;6.53;;;5.90;;
6479;SDS011;71753;48.772;9.148;2023-08-21T07:12:06;7.10;;;6.00;;
6479;SDS011;71753;48.772;9.148;2023-08-21T07:14:33;7.20;;;5.87;;
6479;SDS011;71753;48.772;9.148;2023-08-21T07:17:00;6.87;;;5.83;;
6479;SDS011;71753;48.772;9.148;2023-08-21T07:19:26;8.43;;;5.63;;
6479;SDS011;71753;48.772;9.148;2023-08-21T07:21:53;8.43;;;5.80;;
6479;SDS011;71753;48.772;9.148;2023-08-21T07:24:21;6.80;;;6.10;;
6479;SDS011;71753;48.772;9.148;2023-08-21T07:26:48;7.57;;;5.60;;
6479;SDS011;71753;48.772;9.148;2023-08-21T07:29:14;7.23;;;5.53;;
6479;SDS011;71753;48.772;9.148;2023-08-21T07:31:41;5.80;;;5.20;;
6479;SDS011;71753;48.772;9.148;2023-08-21T07:34:08;6.77;;;5.30;;
6479;SDS011;71753;48.772;9.148;2023-08-21T07:36:34;6.67;;;5.73;;
6479;SDS011;71753;48.772;9.148;2023-08-21T07:39:01;6.87;;;5.60;;
6479;SDS011;71753;48.772;9.148;2023-08-21T07:41:29;6.77;;;5.73;;
6479;SDS011;71753;48.772;9.148;2023-08-21T07:43:56;9.40;;;6.20;;
6479;SDS011;71753;48.772;9.148;2023-08-21T07:46:23;9.27;;;6.43;;
6479;SDS011;71753;48.772;9.148;2023-08-21T07:48:49;10.23;;;6.27;;
6479;SDS011;71753;48.772;9.148;2023-08-21T07:51:16;8.40;;;6.00;;
6479;SDS011;71753;48.772;9.148;2023-08-21T07:53:43;9.13;;;6.27;;
6479;SDS011;71753;48.772;9.148;2023-08-21T07:56:10;8.20;;;5.53;;
6479;SDS011;71753;48.772;9.148;2023-08-21T07:58:38;6.73;;;5.00;;
6479;SDS011;71753;48.772;9.148;2023-08-21T08:01:05;9.83;;;6.73;;
6479;SDS011;71753;48.772;9.148;2023-08-21T08:03:31;6.70;;;5.77;;
6479;SDS011;71753;48.772;9.148;2023-08-21T08:05:58;7.73;;;6.07;;
6479;SDS011;71753;48.772;9.148;2023-08-21T08:08:25;5.87;;;5.30;;
6479;SDS011;71753;48.772;9.148;2023-08-21T08:10:51;8.07;;;6.03;;
6479;SDS011;71753;48.772;9.148;2023-08-21T08:13:18;7.93;;;5.73;;
6479;SDS011;71753;48.772;9.148;2023-08-21T08:15:46;8.07;;;5.93;;
6479;SDS011;71753;48.772;9.148;2023-08-21T08:18:14;9.27;;;5.77;;
6479;SDS011;71753;48.772;9.148;2023-08-21T08:20:40;8.33;;;6.40;;
6479;SDS011;71753;48.772;9.148;2023-08-21T08:23:07;8.23;;;5.80;;
6479;SDS011;71753;48.772;9.148;2023-08-21T08:25:34;9.47;;;5.90;;
6479;SDS011;71753;48.772;9.148;2023-08-21T08:28:01;7.17;;;5.40;;
6479;SDS011;71753;48.772;9.148;2023-08-21T08:30:27;7.73;;;6.40;;
6479;SDS011;71753;48.772;9.148;2023-08-21T08:32:56;10.23;;;6.43;;
6479;SDS011;71753;48.772;9.148;2023-08-21T08:35:22;6.57;;;5.33;;
6479;SDS011;71753;48.772;9.148;2023-08-21T08:37:49;6.37;;;5.07;;
6479;SDS011;71753;48.772;9.148;2023-08-21T08:40:16;6.47;;;5.77;;
6479;SDS011;71753;48.772;9.148;2023-08-21T08:42:42;5.73;;;5.13;;
6479;SDS011;71753;48.772;9.148;2023-08-21T08:45:09;9.77;;;5.80;;
6479;SDS011;71753;48.772;9.148;2023-08-21T08:47:38;8.40;;;5.80;;
6479;SDS011;71753;48.772;9.148;2023-08-21T08:50:08;7.07;;;5.70;;
6479;SDS011;71753;48.772;9.148;2023-08-21T08:52:36;7.60;;;5.83;;
6479;SDS011;71753;48.772;9.148;2023-08-21T08:55:04;8.17;;;5.83;;
6479;SDS011;71753;48.772;9.148;2023-08-21T08:57:32;8.43;;;5.60;;
6479;SDS011;71753;48.772;9.148;2023-08-21T09:00:00;7.07;;;5.47;;
6479;SDS011;71753;48.772;9.148;2023-08-21T09:02:26;11.37;;;6.17;;
6479;SDS011;71753;48.772;9.148;2023-08-21T09:04:53;7.53;;;5.90;;
6479;SDS011;71753;48.772;9.148;2023-08-21T09:07:21;8.97;;;6.87;;
6479;SDS011;71753;48.772;9.148;2023-08-21T09:09:49;7.93;;;6.20;;
6479;SDS011;71753;48.772;9.148;2023-08-21T09:12:17;6.47;;;5.87;;
6479;SDS011;71753;48.772;9.148;2023-08-21T09:14:45;8.00;;;5.53;;
6479;SDS011;71753;48.772;9.148;2023-08-21T09:17:12;8.03;;;5.57;;
6479;SDS011;71753;48.772;9.148;2023-08-21T09:19:39;7.03;;;5.70;;
6479;SDS011;71753;48.772;9.148;2023-08-21T09:22:10;9.77;;;5.40;;
6479;SDS011;71753;48.772;9.148;2023-08-21T09:24:39;7.83;;;6.00;;
6479;SDS011;71753;48.772;9.148;2023-08-21T09:27:13;7.65;;;5.75;;
6479;SDS011;71753;48.772;9.148;2023-08-21T09:29:41;7.53;;;5.40;;
6479;SDS011;71753;48.772;9.148;2023-08-21T09:32:08;7.63;;;5.57;;
6479;SDS011;71753;48.772;9.148;2023-08-21T09:34:35;7.30;;;5.40;;
6479;SDS011;71753;48.772;9.148;2023-08-21T09:37:04;8.87;;;5.20;;
6479;SDS011;71753;48.772;9.148;2023-08-21T09:39:32;7.80;;;5.75;;
6479;SDS011;71753;48.772;9.148;2023-08-21T09:42:01;6.10;;;4.53;;
6479;SDS011;71753;48.772;9.148;2023-08-21T09:44:34;5.30;;;4.70;;
6479;SDS011;71753;48.772;9.148;2023-08-21T09:47:01;5.88;;;4.53;;
6479;SDS011;71753;48.772;9.148;2023-08-21T09:49:28;4.53;;;4.13;;
6479;SDS011;71753;48.772;9.148;2023-08-21T09:51:56;5.40;;;4.90;;
6479;SDS011;71753;48.772;9.148;2023-08-21T09:54:24;6.13;;;4.47;;
6479;SDS011;71753;48.772;9.148;2023-08-21T09:56:51;7.10;;;4.68;;
6479;SDS011;71753;48.772;9.148;2023-08-21T09:59:19;7.55;;;4.80;;
6479;SDS011;71753;48.772;9.148;2023-08-21T10:01:47;5.80;;;4.77;;
6479;SDS011;71753;48.772;9.148;2023-08-21T10:04:17;8.03;;;4.80;;
6479;SDS011;71753;48.772;9.148;2023-08-21T10:06:44;6.40;;;4.85;;
6479;SDS011;71753;48.772;9.148;2023-08-21T10:09:12;5.20;;;4.70;;
6479;SDS011;71753;48.772;9.148;2023-08-21T10:11:40;6.15;;;4.90;;
6479;SDS011;71753;48.772;9.148;2023-08-21T10:14:09;7.17;;;4.63;;
6479;SDS011;71753;48.772;9.148;2023-08-21T10:16:37;7.38;;;4.60;;
6479;SDS011;71753;48.772;9.148;2023-08-21T10:19:04;6.22;;;4.65;;
6479;SDS011;71753;48.772;9.148;2023-08-21T10:21:34;8.57;;;4.85;;
6479;SDS011;71753;48.772;9.148;2023-08-21T10:24:02;8.18;;;4.60;;
6479;SDS011;71753;48.772;9.148;2023-08-21T10:26:29;10.50;;;4.75;;
6479;SDS011;71753;48.772;9.148;2023-08-21T10:28:59;5.72;;;4.85;;
6479;SDS011;71753;48.772;9.148;2023-08-21T10:31:32;7.13;;;4.72;;
6479;SDS011;71753;48.772;9.148;2023-08-21T10:34:01;6.45;;;4.53;;
6479;SDS011;71753;48.772;9.148;2023-08-21T10:39:33;5.78;;;4.80;;
6479;SDS011;71753;48.772;9.148;2023-08-21T10:42:04;5.93;;;4.70;;
6479;SDS011;71753;48.772;9.148;2023-08-21T10:44:36;8.10;;;5.10;;
6479;SDS011;71753;48.772;9.148;2023-08-21T10:47:21;6.10;;;4.60;;
6479;SDS011;71753;48.772;9.148;2023-08-21T10:49:51;5.18;;;4.65;;
6479;SDS011;71753;48.772;9.148;2023-08-21T10:52:20;5.82;;;4.68;;
6479;SDS011;71753;48.772;9.148;2023-08-21T10:54:49;8.52;;;5.10;;
6479;SDS011;71753;48.772;9.148;2023-08-21T10:57:17;8.55;;;4.40;;
6479;SDS011;71753;48.772;9.148;2023-08-21T10:59:54;7.47;;;4.85;;
6479;SDS011;71753;48.772;9.148;2023-08-21T11:02:22;8.90;;;5.35;;
6479;SDS011;71753;48.772;9.148;2023-08-21T11:04:51;7.22;;;4.85;;
6479;SDS011;71753;48.772;9.148;2023-08-21T11:07:19;10.40;;;5.55;;
6479;SDS011;71753;48.772;9.148;2023-08-21T11:09:46;7.63;;;4.72;;
6479;SDS011;71753;48.772;9.148;2023-08-21T11:12:14;5.53;;;5.00;;
6479;SDS011;71753;48.772;9.148;2023-08-21T11:14:41;7.13;;;5.60;;
6479;SDS011;71753;48.772;9.148;2023-08-21T11:17:08;5.05;;;4.55;;
6479;SDS011;71753;48.772;9.148;2023-08-21T11:19:36;9.98;;;5.03;;
6479;SDS011;71753;48.772;9.148;2023-08-21T11:22:05;8.10;;;5.00;;
6479;SDS011;71753;48.772;9.148;2023-08-21T11:24:43;6.05;;;5.20;;
6479;SDS011;71753;48.772;9.148;2023-08-21T11:27:11;9.05;;;5.25;;
6479;SDS011;71753;48.772;9.148;2023-08-21T11:29:39;8.82;;;4.82;;
6479;SDS011;71753;48.772;9.148;2023-08-21T11:32:08;7.68;;;4.80;;
6479;SDS011;71753;48.772;9.148;2023-08-21T11:34:47;5.32;;;4.78;;
6479;SDS011;71753;48.772;9.148;2023-08-21T11:37:17;5.30;;;4.65;;
6479;SDS011;71753;48.772;9.148;2023-08-21T11:39:47;7.13;;;5.20;;
6479;SDS011;71753;48.772;9.148;2023-08-21T11:42:15;6.65;;;4.55;;
6479;SDS011;71753;48.772;9.148;2023-08-21T11:44:43;5.65;;;5.00;;
6479;SDS011;71753;48.772;9.148;2023-08-21T11:47:12;6.50;;;4.55;;
6479;SDS011;71753;48.772;9.148;2023-08-21T11:49:39;5.78;;;4.80;;
6479;SDS011;71753;48.772;9.148;2023-08-21T11:52:07;5.35;;;4.85;;
6479;SDS011;71753;48.772;9.148;2023-08-21T11:54:37;5.93;;;4.68;;
6479;SDS011;71753;48.772;9.148;2023-08-21T11:57:06;11.00;;;5.72;;
6479;SDS011;71753;48.772;9.148;2023-08-21T11:59:34;7.80;;;5.20;;
6479;SDS011;71753;48.772;9.148;2023-08-21T12:02:05;8.07;;;5.03;;
6479;SDS011;71753;48.772;9.148;2023-08-21T12:04:35;5.93;;;4.78;;
6479;SDS011;71753;48.772;9.148;2023-08-21T12:07:02;6.25;;;5.13;;
6479;SDS011;71753;48.772;9.148;2023-08-21T12:09:29;7.53;;;4.80;;
6479;SDS011;71753;48.772;9.148;2023-08-21T12:11:57;4.93;;;4.32;;
6479;SDS011;71753;48.772;9.148;2023-08-21T12:14:24;5.53;;;4.50;;
6479;SDS011;71753;48.772;9.148;2023-08-21T12:16:50;8.77;;;4.82;;
6479;SDS011;71753;48.772;9.148;2023-08-21T12:19:17;7.45;;;4.50;;
6479;SDS011;71753;48.772;9.148;2023-08-21T12:21:44;9.00;;;5.20;;
6479;SDS011;71753;48.772;9.148;2023-08-21T12:24:11;9.05;;;4.80;;
6479;SDS011;71753;48.772;9.148;2023-08-21T12:26:38;5.95;;;4.78;;
6479;SDS011;71753;48.772;9.148;2023-08-21T12:29:06;7.05;;;5.03;;
6479;SDS011;71753;48.772;9.148;2023-08-21T12:31:32;7.60;;;4.82;;
6479;SDS011;71753;48.772;9.148;2023-08-21T12:33:59;5.72;;;4.57;;
6479;SDS011;71753;48.772;9.148;2023-08-21T12:36:26;6.75;;;4.68;;
6479;SDS011;71753;48.772;9.148;2023-08-21T12:38:52;8.07;;;4.97;;
6479;SDS011;71753;48.772;9.148;2023-08-21T12:41:19;5.53;;;4.65;;
6479;SDS011;71753;48.772;9.148;2023-08-21T12:43:46;6.75;;;4.63;;
6479;SDS011;71753;48.772;9.148;2023-08-21T12:46:14;7.93;;;4.65;;
6479;SDS011;71753;48.772;9.148;2023-08-21T12:48:41;6.88;;;4.30;;
6479;SDS011;71753;48.772;9.148;2023-08-21T12:51:07;9.90;;;5.03;;
6479;SDS011;71753;48.772;9.148;2023-08-21T12:53:35;6.40;;;4.88;;
6479;SDS011;71753;48.772;9.148;2023-08-21T12:56:01;7.13;;;4.45;;
6479;SDS011;71753;48.772;9.148;2023-08-21T12:58:28;5.65;;;4.78;;
6479;SDS011;71753;48.772;9.148;2023-08-21T13:00:55;7.55;;;4.93;;
6479;SDS011;71753;48.772;9.148;2023-08-21T13:03:23;7.43;;;4.63;;
6479;SDS011;71753;48.772;9.148;2023-08-21T13:05:50;8.90;;;4.95;;
6479;SDS011;71753;48.772;9.148;2023-08-21T13:08:17;6.75;;;4.40;;
6479;SDS011;71753;48.772;9.148;2023-08-21T13:10:43;6.80;;;4.75;;
6479;SDS011;71753;48.772;9.148;2023-08-21T13:13:10;6.68;;;4.82;;
6479;SDS011;71753;48.772;9.148;2023-08-21T13:15:37;6.88;;;4.88;;
6479;SDS011;71753;48.772;9.148;2023-08-21T13:18:03;6.43;;;4.78;;
6479;SDS011;71753;48.772;9.148;2023-08-21T13:20:32;7.85;;;4.60;;
6479;SDS011;71753;48.772;9.148;2023-08-21T13:22:59;6.35;;;4.78;;
6479;SDS011;71753;48.772;9.148;2023-08-21T13:25:25;6.72;;;4.72;;
6479;SDS011;71753;48.772;9.148;2023-08-21T13:27:54;8.27;;;4.78;;
6479;SDS011;71753;48.772;9.148;2023-08-21T13:30:21;5.82;;;4.55;;
6479;SDS011;71753;48.772;9.148;2023-08-21T13:32:48;6.18;;;4.43;;
6479;SDS011;71753;48.772;9.148;2023-08-21T13:35:15;7.78;;;4.78;;
6479;SDS011;71753;48.772;9.148;2023-08-21T13:37:44;6.07;;;4.50;;
6479;SDS011;71753;48.772;9.148;2023-08-21T13:40:10;6.03;;;4.55;;
6479;SDS011;71753;48.772;9.148;2023-08-21T13:42:39;7.20;;;4.70;;
6479;SDS011;71753;48.772;9.148;2023-08-21T13:45:07;5.28;;;4.22;;
6479;SDS011;71753;48.772;9.148;2023-08-21T13:47:36;5.18;;;4.43;;
6479;SDS011;71753;48.772;9.148;2023-08-21T13:50:03;5.57;;;4.38;;
6479;SDS011;71753;48.772;9.148;2023-08-21T13:52:31;9.63;;;5.13;;
6479;SDS011;71753;48.772;9.148;2023-08-21T13:55:00;5.10;;;4.60;;
6479;SDS011;71753;48.772;9.148;2023-08-21T13:57:28;8.32;;;5.10;;
6479;SDS011;71753;48.772;9.148;2023-08-21T13:59:55;4.78;;;4.22;;
6479;SDS011;71753;48.772;9.148;2023-08-21T14:02:21;6.75;;;4.30;;
6479;SDS011;71753;48.772;9.148;2023-08-21T14:04:49;6.32;;;4.35;;
6479;SDS011;71753;48.772;9.148;2023-08-21T14:07:15;5.82;;;4.65;;
6479;SDS011;71753;48.772;9.148;2023-08-21T14:09:42;8.93;;;4.90;;
6479;SDS011;71753;48.772;9.148;2023-08-21T14:12:10;8.85;;;4.75;;
6479;SDS011;71753;48.772;9.148;2023-08-21T14:14:37;6.47;;;4.55;;
6479;SDS011;71753;48.772;9.148;2023-08-21T14:17:04;7.22;;;5.00;;
6479;SDS011;71753;48.772;9.148;2023-08-21T14:19:31;7.82;;;4.68;;
6479;SDS011;71753;48.772;9.148;2023-08-21T14:21:58;7.10;;;4.57;;
6479;SDS011;71753;48.772;9.148;2023-08-21T14:24:25;6.45;;;4.70;;
6479;SDS011;71753;48.772;9.148;2023-08-21T14:26:52;4.57;;;4.13;;
6479;SDS011;71753;48.772;9.148;2023-08-21T14:29:20;5.03;;;4.53;;
6479;SDS011;71753;48.772;9.148;2023-08-21T14:31:47;5.38;;;4.50;;
6479;SDS011;71753;48.772;9.148;2023-08-21T14:34:14;11.35;;;4.53;;
6479;SDS011;71753;48.772;9.148;2023-08-21T14:36:41;6.93;;;4.20;;
6479;SDS011;71753;48.772;9.148;2023-08-21T14:39:08;5.70;;;4.30;;
6479;SDS011;71753;48.772;9.148;2023-08-21T14:41:36;5.50;;;3.95;;
6479;SDS011;71753;48.772;9.148;2023-08-21T14:44:03;6.75;;;4.50;;
6479;SDS011;71753;48.772;9.148;2023-08-21T14:46:32;8.60;;;4.50;;
6479;SDS011;71753;48.772;9.148;2023-08-21T14:48:59;6.03;;;4.28;;
6479;SDS011;71753;48.772;9.148;2023-08-21T14:51:25;6.18;;;4.40;;
6479;SDS011;71753;48.772;9.148;2023-08-21T14:53:52;5.78;;;4.43;;
6479;SDS011;71753;48.772;9.148;2023-08-21T14:56:19;5.40;;;4.20;;
6479;SDS011;71753;48.772;9.148;2023-08-21T14:58:46;6.25;;;4.10;;
6479;SDS011;71753;48.772;9.148;2023-08-21T15:01:13;4.55;;;4.15;;
6479;SDS011;71753;48.772;9.148;2023-08-21T15:03:41;8.15;;;4.47;;
6479;SDS011;71753;48.772;9.148;2023-08-21T15:06:09;6.70;;;4.15;;